createdAt,value
2023-01-09T00:00:54.737Z,13.07
2023-01-09T00:03:21.448Z,13.23
2023-01-09T00:05:48.081Z,12.10
2023-01-09T00:08:14.713Z,13.53
2023-01-09T00:10:41.315Z,14.23
2023-01-09T00:13:11.300Z,14.30
2023-01-09T00:15:39.958Z,15.03
2023-01-09T00:18:06.620Z,12.17
2023-01-09T00:20:33.208Z,13.63
2023-01-09T00:22:59.863Z,12.50
2023-01-09T00:25:26.836Z,15.97
2023-01-09T00:27:53.431Z,14.50
2023-01-09T00:30:21.296Z,10.90
2023-01-09T00:32:47.932Z,11.77
2023-01-09T00:35:16.879Z,13.17
2023-01-09T00:37:43.578Z,13.17
2023-01-09T00:40:11.003Z,13.77
2023-01-09T00:42:41.284Z,15.43
2023-01-09T00:45:10.849Z,11.43
2023-01-09T00:47:40.780Z,14.57
2023-01-09T00:50:15.278Z,10.07
2023-01-09T00:52:42.786Z,13.07
2023-01-09T00:55:09.772Z,12.97
2023-01-09T00:57:36.448Z,12.27
2023-01-09T01:00:04.297Z,14.70
2023-01-09T01:02:31.028Z,12.07
2023-01-09T01:05:16.394Z,16.87
2023-01-09T01:07:43.418Z,14.33
2023-01-09T01:10:16.638Z,13.33
2023-01-09T01:12:47.068Z,12.90
2023-01-09T01:15:14.567Z,13.80
2023-01-09T01:17:41.988Z,14.30
2023-01-09T01:20:12.070Z,16.57
2023-01-09T01:22:38.766Z,15.90
2023-01-09T01:25:05.873Z,15.17
2023-01-09T01:27:34.939Z,15.63
2023-01-09T01:30:01.628Z,15.83
2023-01-09T01:32:28.246Z,14.50
2023-01-09T01:34:54.822Z,17.30
2023-01-09T01:37:22.842Z,15.60
2023-01-09T01:39:52.414Z,15.17
2023-01-09T01:42:19.264Z,13.87
2023-01-09T01:44:59.894Z,13.97
2023-01-09T01:47:38.646Z,13.60
2023-01-09T01:50:16.178Z,15.47
2023-01-09T01:52:45.696Z,17.10
2023-01-09T01:55:12.591Z,19.27
2023-01-09T01:57:43.144Z,17.43
2023-01-09T02:00:13.957Z,17.50
2023-01-09T02:02:46.552Z,19.03
2023-01-09T02:05:13.233Z,16.70
2023-01-09T02:07:39.911Z,15.83
2023-01-09T02:10:06.979Z,18.67
2023-01-09T02:12:33.600Z,16.37
2023-01-09T02:15:09.302Z,17.97
2023-01-09T02:17:54.166Z,15.83
2023-01-09T02:20:40.505Z,16.30
2023-01-09T02:23:32.172Z,18.47
2023-01-09T02:26:17.577Z,19.53
2023-01-09T02:29:04.346Z,14.97
2023-01-09T02:31:52.266Z,16.13
2023-01-09T02:34:21.587Z,15.77
2023-01-09T02:37:00.146Z,16.27
2023-01-09T02:39:27.696Z,17.20
2023-01-09T02:42:05.210Z,18.77
2023-01-09T02:44:34.408Z,17.13
2023-01-09T02:47:16.200Z,17.93
2023-01-09T02:49:52.229Z,19.90
2023-01-09T02:52:48.173Z,20.63
2023-01-09T02:55:27.519Z,20.13
2023-01-09T02:58:08.070Z,17.63
2023-01-09T03:00:53.415Z,17.47
2023-01-09T03:03:38.832Z,17.70
2023-01-09T03:06:15.231Z,16.20
2023-01-09T03:08:49.177Z,21.90
2023-01-09T03:11:15.890Z,18.85
2023-01-09T03:13:52.318Z,16.60
2023-01-09T03:16:25.965Z,16.43
2023-01-09T03:18:53.973Z,17.77
2023-01-09T03:21:20.858Z,17.80
2023-01-09T03:23:59.153Z,17.90
2023-01-09T03:26:26.696Z,19.20
2023-01-09T03:28:53.381Z,16.20
2023-01-09T03:31:20.063Z,17.53
2023-01-09T03:33:46.740Z,19.17
2023-01-09T03:36:14.424Z,21.93
2023-01-09T03:38:41.151Z,18.50
2023-01-09T03:41:08.296Z,18.67
2023-01-09T03:43:35.089Z,20.33
2023-01-09T03:46:02.226Z,22.00
2023-01-09T03:48:28.897Z,17.97
2023-01-09T03:50:56.148Z,19.13
2023-01-09T03:53:24.309Z,18.37
2023-01-09T03:55:53.091Z,19.87
2023-01-09T03:58:20.621Z,20.07
2023-01-09T04:00:48.952Z,18.07
2023-01-09T04:03:17.394Z,19.37
2023-01-09T04:05:45.549Z,17.80
2023-01-09T04:08:12.224Z,17.40
2023-01-09T04:10:38.963Z,18.03
2023-01-09T04:13:05.651Z,17.67
2023-01-09T04:15:32.319Z,18.60
2023-01-09T04:17:59.025Z,18.17
2023-01-09T04:20:25.693Z,17.07
2023-01-09T04:22:52.333Z,17.57
2023-01-09T04:25:18.942Z,16.87
2023-01-09T04:27:45.553Z,18.37
2023-01-09T04:30:12.468Z,15.33
2023-01-09T04:32:39.115Z,15.17
2023-01-09T04:35:07.608Z,14.37
2023-01-09T04:37:36.666Z,13.63
2023-01-09T04:40:08.748Z,18.17
2023-01-09T04:42:35.390Z,19.87
2023-01-09T04:45:02.129Z,18.37
2023-01-09T04:47:31.002Z,21.27
2023-01-09T04:49:57.682Z,17.73
2023-01-09T04:52:24.357Z,21.43
2023-01-09T04:54:50.936Z,15.00
2023-01-09T04:57:17.994Z,17.47
2023-01-09T04:59:44.689Z,22.27
2023-01-09T05:02:11.760Z,16.70
2023-01-09T05:04:38.667Z,19.53
2023-01-09T05:07:05.309Z,21.00
2023-01-09T05:09:31.899Z,19.27
2023-01-09T05:11:58.749Z,21.13
2023-01-09T05:14:26.271Z,21.53
2023-01-09T05:16:53.039Z,18.60
2023-01-09T05:19:19.671Z,22.40
2023-01-09T05:21:46.316Z,19.90
2023-01-09T05:24:12.903Z,21.80
2023-01-09T05:26:39.558Z,22.00
2023-01-09T05:29:06.200Z,25.43
2023-01-09T05:31:32.934Z,24.03
2023-01-09T05:34:00.869Z,24.83
2023-01-09T05:36:28.240Z,25.50
2023-01-09T05:38:54.901Z,22.43
2023-01-09T05:41:23.579Z,23.77
2023-01-09T05:43:50.799Z,24.67
2023-01-09T05:46:17.643Z,24.97
2023-01-09T05:48:45.131Z,26.43
2023-01-09T05:51:12.594Z,25.37
2023-01-09T05:53:39.260Z,26.20
2023-01-09T05:56:06.130Z,29.73
2023-01-09T05:58:32.746Z,29.30
2023-01-09T06:00:59.632Z,28.30
2023-01-09T06:03:26.382Z,29.67
2023-01-09T06:05:52.989Z,30.10
2023-01-09T06:08:19.638Z,27.20
2023-01-09T06:10:47.113Z,25.47
2023-01-09T06:13:14.310Z,26.07
2023-01-09T06:15:40.991Z,25.70
2023-01-09T06:18:07.592Z,25.50
2023-01-09T06:20:34.823Z,28.87
2023-01-09T06:23:01.477Z,30.23
2023-01-09T06:25:28.111Z,26.73
2023-01-09T06:27:54.742Z,27.83
2023-01-09T06:30:21.771Z,25.60
2023-01-09T06:32:49.262Z,25.03
2023-01-09T06:35:20.417Z,26.33
2023-01-09T06:37:48.099Z,27.17
2023-01-09T06:40:14.972Z,27.67
2023-01-09T06:42:45.754Z,24.83
2023-01-09T06:45:13.110Z,28.87
2023-01-09T06:47:40.217Z,26.00
2023-01-09T06:50:07.598Z,25.83
2023-01-09T06:52:34.184Z,27.07
2023-01-09T06:55:00.884Z,26.27
2023-01-09T06:57:27.610Z,29.07
2023-01-09T06:59:54.247Z,26.53
2023-01-09T07:02:22.131Z,25.07
2023-01-09T07:04:49.003Z,28.13
2023-01-09T07:07:15.781Z,25.60
2023-01-09T07:09:42.535Z,28.80
2023-01-09T07:12:09.377Z,27.97
2023-01-09T07:14:36.200Z,26.60
2023-01-09T07:17:03.638Z,26.43
2023-01-09T07:19:30.411Z,28.40
2023-01-09T07:21:57.182Z,25.20
2023-01-09T07:24:23.900Z,26.70
2023-01-09T07:26:50.631Z,27.57
2023-01-09T07:29:17.329Z,25.10
2023-01-09T07:31:43.989Z,25.60
2023-01-09T07:34:10.709Z,26.33
2023-01-09T07:36:37.322Z,26.20
2023-01-09T07:39:04.053Z,28.20
2023-01-09T07:41:30.745Z,29.07
2023-01-09T07:43:57.531Z,26.03
2023-01-09T07:46:24.276Z,23.87
2023-01-09T07:48:50.924Z,25.47
2023-01-09T07:51:17.550Z,22.67
2023-01-09T07:53:44.148Z,27.17
2023-01-09T07:56:10.776Z,27.23
2023-01-09T07:58:38.435Z,27.57
2023-01-09T08:01:05.316Z,26.93
2023-01-09T08:03:33.481Z,30.80
2023-01-09T08:06:00.699Z,29.23
2023-01-09T08:08:27.609Z,26.43
2023-01-09T08:10:54.218Z,25.83
2023-01-09T08:13:21.224Z,27.53
2023-01-09T08:15:47.938Z,29.90
2023-01-09T08:18:14.563Z,23.67
2023-01-09T08:20:41.183Z,26.77
2023-01-09T08:23:07.799Z,27.67
2023-01-09T08:25:34.467Z,28.57
2023-01-09T08:28:01.060Z,26.70
2023-01-09T08:30:27.713Z,29.47
2023-01-09T08:32:54.490Z,27.90
2023-01-09T08:35:21.531Z,25.87
2023-01-09T08:37:48.674Z,25.97
2023-01-09T08:40:16.514Z,23.87
2023-01-09T08:43:01.732Z,26.63
2023-01-09T08:45:47.085Z,29.33
2023-01-09T08:48:13.776Z,23.90
2023-01-09T08:50:40.557Z,27.37
2023-01-09T08:53:07.228Z,26.00
2023-01-09T08:55:33.816Z,23.20
2023-01-09T08:58:00.411Z,25.77
2023-01-09T09:00:27.186Z,24.47
2023-01-09T09:02:55.743Z,23.73
2023-01-09T09:05:23.246Z,26.03
2023-01-09T09:07:50.773Z,28.07
2023-01-09T09:10:17.967Z,23.87
2023-01-09T09:12:44.797Z,20.17
2023-01-09T09:15:23.963Z,23.53
2023-01-09T09:17:58.839Z,20.13
2023-01-09T09:20:28.078Z,22.77
2023-01-09T09:22:54.940Z,19.77
2023-01-09T09:25:22.164Z,20.00
2023-01-09T09:27:49.281Z,21.13
2023-01-09T09:30:17.425Z,24.77
2023-01-09T09:32:44.085Z,24.63
2023-01-09T09:35:10.906Z,22.33
2023-01-09T09:37:37.608Z,23.47
2023-01-09T09:40:17.521Z,25.97
2023-01-09T09:43:30.242Z,27.20
2023-01-09T09:46:14.150Z,27.40
2023-01-09T09:48:51.806Z,26.70
2023-01-09T09:51:30.338Z,29.10
2023-01-09T09:54:04.771Z,22.67
2023-01-09T09:56:35.275Z,25.30
2023-01-09T09:59:05.359Z,23.03
2023-01-09T10:01:41.214Z,24.63
2023-01-09T10:04:12.333Z,24.40
2023-01-09T10:06:51.751Z,24.87
2023-01-09T10:09:45.739Z,24.93
2023-01-09T10:12:27.749Z,21.15
2023-01-09T10:15:06.572Z,23.87
2023-01-09T10:17:44.422Z,21.20
2023-01-09T10:20:17.101Z,23.90
2023-01-09T10:22:58.411Z,25.77
2023-01-09T10:25:31.375Z,22.90
2023-01-09T10:28:26.157Z,24.30
2023-01-09T10:31:08.991Z,24.77
2023-01-09T10:34:06.722Z,27.43
2023-01-09T10:37:04.187Z,25.10
2023-01-09T10:39:44.836Z,26.57
2023-01-09T10:42:18.640Z,25.83
2023-01-09T10:44:59.940Z,26.00
2023-01-09T10:47:34.417Z,25.20
2023-01-09T10:50:14.606Z,22.90
2023-01-09T10:52:41.964Z,22.77
2023-01-09T10:55:50.420Z,22.93
2023-01-09T10:58:18.975Z,23.87
2023-01-09T11:00:46.716Z,23.60
2023-01-09T11:03:15.079Z,25.10
2023-01-09T11:05:42.185Z,22.73
2023-01-09T11:08:08.712Z,22.30
2023-01-09T11:10:52.553Z,22.03
2023-01-09T11:13:20.586Z,19.52
2023-01-09T11:16:08.174Z,20.20
2023-01-09T11:18:38.340Z,20.83
2023-01-09T11:21:26.220Z,20.07
2023-01-09T11:23:53.603Z,21.13
2023-01-09T11:26:26.571Z,19.63
2023-01-09T11:29:07.364Z,20.17
2023-01-09T11:31:34.412Z,19.37
2023-01-09T11:34:01.132Z,16.90
2023-01-09T11:36:28.198Z,23.17
2023-01-09T11:38:59.240Z,18.73
2023-01-09T11:41:29.425Z,20.87
2023-01-09T11:43:58.655Z,22.53
2023-01-09T11:46:35.685Z,19.60
2023-01-09T11:49:04.817Z,15.93
2023-01-09T11:51:35.711Z,18.00
2023-01-09T11:54:18.308Z,16.97
2023-01-09T11:56:45.961Z,15.80
2023-01-09T11:59:16.968Z,14.70
2023-01-09T12:02:00.710Z,18.10
2023-01-09T12:04:56.559Z,18.20
2023-01-09T12:07:55.453Z,16.27
2023-01-09T12:10:48.992Z,18.50
2023-01-09T12:13:44.587Z,16.92
2023-01-09T12:16:34.284Z,15.02
2023-01-09T12:19:13.282Z,15.40
2023-01-09T12:21:53.749Z,12.00
2023-01-09T12:24:41.548Z,12.87
2023-01-09T12:27:25.385Z,12.83
2023-01-09T12:30:10.748Z,13.30
2023-01-09T12:33:05.471Z,13.43
2023-01-09T12:35:47.049Z,14.85
2023-01-09T12:38:39.233Z,11.73
2023-01-09T12:41:07.011Z,14.37
2023-01-09T12:43:40.578Z,12.13
2023-01-09T12:46:19.859Z,11.90
2023-01-09T12:49:14.493Z,13.43
2023-01-09T12:51:48.430Z,13.75
2023-01-09T12:54:35.161Z,11.15
2023-01-09T12:57:06.774Z,9.53
2023-01-09T12:59:38.438Z,11.93
2023-01-09T13:02:14.151Z,10.10
2023-01-09T13:04:46.828Z,7.77
2023-01-09T13:07:39.318Z,10.23
2023-01-09T13:10:17.266Z,10.30
2023-01-09T13:12:44.720Z,8.67
2023-01-09T13:15:25.528Z,10.30
2023-01-09T13:18:11.456Z,9.37
2023-01-09T13:20:53.118Z,7.77
2023-01-09T13:23:34.086Z,6.50
2023-01-09T13:26:04.326Z,6.50
2023-01-09T13:28:37.160Z,8.07
2023-01-09T13:31:22.651Z,8.20
2023-01-09T13:33:53.044Z,6.93
2023-01-09T13:36:26.196Z,7.63
2023-01-09T13:38:54.008Z,5.57
2023-01-09T13:41:39.388Z,5.77
2023-01-09T13:44:16.121Z,7.47
2023-01-09T13:46:44.730Z,6.13
2023-01-09T13:49:31.932Z,6.57
2023-01-09T13:52:04.643Z,7.63
2023-01-09T13:55:00.349Z,6.17
2023-01-09T13:57:31.349Z,7.20
2023-01-09T14:00:20.919Z,5.63
2023-01-09T14:02:48.980Z,7.23
2023-01-09T14:05:37.062Z,5.23
2023-01-09T14:08:06.889Z,6.83
2023-01-09T14:10:37.180Z,8.07
2023-01-09T14:13:14.128Z,3.80
2023-01-09T14:15:44.796Z,7.20
2023-01-09T14:18:28.657Z,8.60
2023-01-09T14:21:00.689Z,5.13
2023-01-09T14:26:22.862Z,8.00
2023-01-09T14:28:49.674Z,6.07
2023-01-09T14:31:34.484Z,4.53
2023-01-09T14:34:35.626Z,5.50
2023-01-09T14:37:02.693Z,5.40
2023-01-09T14:39:32.736Z,6.37
2023-01-09T14:42:06.249Z,8.13
2023-01-09T14:44:56.480Z,6.18
2023-01-09T14:47:32.633Z,6.37
2023-01-09T14:50:18.826Z,6.33
2023-01-09T14:52:48.693Z,7.10
2023-01-09T14:55:31.241Z,7.10
2023-01-09T14:58:18.399Z,4.60
2023-01-09T15:01:06.177Z,4.33
2023-01-09T15:03:51.471Z,4.37
2023-01-09T15:06:44.441Z,5.77
2023-01-09T15:09:28.554Z,8.63
2023-01-09T15:11:58.807Z,7.97
2023-01-09T15:14:30.584Z,7.40
2023-01-09T15:16:59.027Z,7.13
2023-01-09T15:19:25.862Z,6.93
2023-01-09T15:22:03.874Z,8.20
2023-01-09T15:24:33.440Z,6.20
2023-01-09T15:27:11.339Z,5.27
2023-01-09T15:29:37.980Z,5.17
2023-01-09T15:32:21.841Z,4.57
2023-01-09T15:34:49.138Z,4.85
2023-01-09T15:37:30.097Z,5.53
2023-01-09T15:39:58.067Z,4.73
2023-01-09T15:42:45.541Z,6.90
2023-01-09T15:45:24.948Z,6.80
2023-01-09T15:47:52.183Z,3.17
2023-01-09T15:50:24.286Z,4.87
2023-01-09T15:52:51.768Z,3.30
2023-01-09T15:55:36.880Z,5.10
2023-01-09T15:58:05.915Z,4.47
2023-01-09T16:00:41.674Z,5.43
2023-01-09T16:03:18.730Z,3.20
2023-01-09T16:05:49.339Z,3.07
2023-01-09T16:08:20.687Z,3.70
2023-01-09T16:10:56.521Z,3.00
2023-01-09T16:13:24.377Z,4.10
2023-01-09T16:15:51.429Z,4.03
2023-01-09T16:18:25.330Z,5.40
2023-01-09T16:21:01.883Z,4.90
2023-01-09T16:23:28.410Z,3.67
2023-01-09T16:26:12.607Z,3.53
2023-01-09T16:28:40.995Z,2.67
2023-01-09T16:31:19.463Z,3.70
2023-01-09T16:33:49.863Z,3.20
2023-01-09T16:36:21.304Z,4.13
2023-01-09T16:38:48.167Z,3.57
2023-01-09T16:41:40.705Z,4.07
2023-01-09T16:44:12.397Z,2.33
2023-01-09T16:46:43.286Z,4.43
2023-01-09T16:49:23.730Z,3.80
2023-01-09T16:51:51.018Z,4.10
2023-01-09T16:54:17.816Z,2.07
2023-01-09T16:56:48.418Z,2.57
2023-01-09T16:59:20.590Z,3.27
2023-01-09T17:01:51.200Z,4.53
2023-01-09T17:04:20.174Z,3.27
2023-01-09T17:06:48.807Z,3.87
2023-01-09T17:09:17.794Z,3.97
2023-01-09T17:11:44.798Z,3.33
2023-01-09T17:14:12.373Z,2.90
2023-01-09T17:16:41.474Z,2.73
2023-01-09T17:19:19.029Z,3.20
2023-01-09T17:21:46.131Z,2.90
2023-01-09T17:24:31.496Z,2.50
2023-01-09T17:27:17.281Z,3.20
2023-01-09T17:29:44.572Z,3.63
2023-01-09T17:32:15.882Z,3.67
2023-01-09T17:34:42.939Z,5.63
2023-01-09T17:37:19.416Z,7.50
2023-01-09T17:39:46.413Z,7.93
2023-01-09T17:42:13.031Z,4.97
2023-01-09T17:44:39.668Z,4.03
2023-01-09T17:47:07.323Z,3.43
2023-01-09T17:49:34.157Z,3.90
2023-01-09T17:52:00.961Z,4.53
2023-01-09T17:54:27.684Z,4.17
2023-01-09T17:56:54.584Z,3.90
2023-01-09T17:59:21.334Z,4.33
2023-01-09T18:01:48.113Z,4.57
2023-01-09T18:04:14.900Z,3.20
2023-01-09T18:06:41.546Z,5.20
2023-01-09T18:09:10.900Z,3.53
2023-01-09T18:11:37.534Z,5.33
2023-01-09T18:14:04.128Z,4.37
2023-01-09T18:16:31.001Z,4.97
2023-01-09T18:18:58.713Z,3.90
2023-01-09T18:21:27.297Z,5.30
2023-01-09T18:23:54.139Z,4.47
2023-01-09T18:26:21.292Z,5.17
2023-01-09T18:28:50.474Z,5.67
2023-01-09T18:31:22.050Z,14.43
2023-01-09T18:33:52.173Z,15.27
2023-01-09T18:36:24.473Z,16.50
2023-01-09T18:38:52.273Z,13.43
2023-01-09T18:41:19.353Z,9.27
2023-01-09T18:43:52.181Z,11.87
2023-01-09T18:46:23.951Z,6.73
2023-01-09T18:48:54.676Z,6.10
2023-01-09T18:51:22.110Z,6.20
2023-01-09T18:53:49.444Z,9.53
2023-01-09T18:56:16.451Z,5.87
2023-01-09T18:58:43.182Z,5.97
2023-01-09T19:01:09.873Z,6.63
2023-01-09T19:03:36.663Z,6.67
2023-01-09T19:06:04.062Z,8.40
2023-01-09T19:08:32.154Z,6.83
2023-01-09T19:10:59.040Z,5.47
2023-01-09T19:13:29.327Z,7.30
2023-01-09T19:15:56.752Z,6.30
2023-01-09T19:18:24.579Z,4.73
2023-01-09T19:20:52.823Z,5.80
2023-01-09T19:23:20.605Z,5.70
2023-01-09T19:25:47.766Z,5.07
2023-01-09T19:28:14.417Z,5.17
2023-01-09T19:30:41.828Z,4.57
2023-01-09T19:33:10.324Z,5.23
2023-01-09T19:35:37.084Z,6.07
2023-01-09T19:38:04.113Z,4.07
2023-01-09T19:40:30.709Z,5.00
2023-01-09T19:42:57.988Z,4.00
2023-01-09T19:45:24.832Z,4.43
2023-01-09T19:47:51.443Z,5.00
2023-01-09T19:50:18.312Z,4.63
2023-01-09T19:52:45.686Z,4.23
2023-01-09T19:55:13.857Z,8.43
2023-01-09T19:57:42.884Z,5.23
2023-01-09T20:00:14.258Z,6.63
2023-01-09T20:02:41.983Z,6.20
2023-01-09T20:05:09.546Z,5.43
2023-01-09T20:07:36.444Z,4.57
2023-01-09T20:10:03.188Z,4.77
2023-01-09T20:12:29.792Z,8.77
2023-01-09T20:14:56.377Z,5.00
2023-01-09T20:17:23.295Z,4.37
2023-01-09T20:19:49.928Z,4.27
2023-01-09T20:22:16.580Z,5.53
2023-01-09T20:24:43.149Z,5.07
2023-01-09T20:27:09.738Z,4.10
2023-01-09T20:29:36.375Z,3.50
2023-01-09T20:32:06.191Z,4.63
2023-01-09T20:34:32.844Z,3.47
2023-01-09T20:36:59.478Z,4.23
2023-01-09T20:39:26.455Z,2.77
2023-01-09T20:41:53.070Z,4.33
2023-01-09T20:44:19.682Z,4.50
2023-01-09T20:46:51.987Z,4.87
2023-01-09T20:49:18.643Z,3.70
2023-01-09T20:51:48.158Z,4.43
2023-01-09T20:54:15.942Z,4.43
2023-01-09T20:56:42.901Z,4.47
2023-01-09T20:59:17.011Z,4.40
2023-01-09T21:01:43.673Z,4.22
2023-01-09T21:04:10.454Z,4.37
2023-01-09T21:06:37.198Z,4.67
2023-01-09T21:09:04.513Z,4.53
2023-01-09T21:11:31.398Z,5.53
2023-01-09T21:13:58.003Z,4.47
2023-01-09T21:16:25.139Z,3.50
2023-01-09T21:18:52.680Z,3.07
2023-01-09T21:21:22.492Z,3.13
2023-01-09T21:23:51.931Z,3.27
2023-01-09T21:26:22.252Z,4.23
2023-01-09T21:28:50.159Z,5.07
2023-01-09T21:31:19.648Z,4.73
2023-01-09T21:33:49.659Z,4.40
2023-01-09T21:36:17.192Z,3.30
2023-01-09T21:38:43.823Z,3.10
2023-01-09T21:41:29.234Z,4.53
2023-01-09T21:44:14.741Z,4.70
2023-01-09T21:46:55.737Z,3.80
2023-01-09T21:49:26.648Z,3.07
2023-01-09T21:51:53.943Z,2.63
2023-01-09T21:54:23.418Z,3.70
2023-01-09T21:56:53.470Z,3.53
2023-01-09T21:59:20.364Z,4.80
2023-01-09T22:01:48.671Z,3.43
2023-01-09T22:04:17.178Z,3.00
2023-01-09T22:06:43.789Z,5.50
2023-01-09T22:09:13.290Z,2.60
2023-01-09T22:11:40.517Z,3.00
2023-01-09T22:14:07.374Z,3.43
2023-01-09T22:16:34.181Z,4.13
2023-01-09T22:19:00.966Z,4.20
2023-01-09T22:21:27.657Z,5.73
2023-01-09T22:23:54.374Z,3.53
2023-01-09T22:26:21.162Z,5.37
2023-01-09T22:28:48.511Z,2.80
2023-01-09T22:31:20.209Z,3.23
2023-01-09T22:33:51.096Z,3.00
2023-01-09T22:38:47.870Z,3.63
2023-01-09T22:41:14.795Z,6.30
2023-01-09T22:43:41.488Z,4.33
2023-01-09T22:46:11.385Z,4.60
2023-01-09T22:48:38.549Z,4.63
2023-01-09T22:51:07.551Z,5.67
2023-01-09T22:53:34.513Z,3.23
2023-01-09T22:56:03.679Z,6.47
2023-01-09T22:58:32.905Z,2.67
2023-01-09T23:00:59.945Z,4.03
2023-01-09T23:03:27.230Z,4.20
2023-01-09T23:06:08.456Z,3.37
2023-01-09T23:08:35.181Z,3.27
2023-01-09T23:11:02.941Z,4.20
2023-01-09T23:13:29.641Z,5.53
2023-01-09T23:15:56.705Z,6.03
2023-01-09T23:18:23.374Z,7.27
2023-01-09T23:20:58.763Z,3.73
2023-01-09T23:23:27.306Z,4.80
2023-01-09T23:25:56.477Z,8.10
2023-01-09T23:28:23.881Z,4.50
2023-01-09T23:30:50.525Z,4.87
2023-01-09T23:33:17.344Z,4.23
2023-01-09T23:35:44.686Z,5.10
2023-01-09T23:38:11.772Z,6.23
2023-01-09T23:40:40.082Z,6.00
2023-01-09T23:43:09.779Z,5.57
2023-01-09T23:45:41.505Z,5.63
2023-01-09T23:48:10.463Z,4.93
2023-01-09T23:50:37.675Z,5.20
2023-01-09T23:53:04.684Z,6.33
2023-01-09T23:55:31.710Z,5.97
2023-01-09T23:57:58.378Z,6.17
